createdAt,value
2023-03-14T00:00:34.502Z,11.66
2023-03-14T00:02:55.815Z,11.62
2023-03-14T00:04:58.632Z,11.58
2023-03-14T00:07:01.381Z,11.53
2023-03-14T00:09:04.336Z,11.53
2023-03-14T00:11:21.648Z,11.52
2023-03-14T00:13:25.584Z,11.52
2023-03-14T00:15:29.636Z,11.50
2023-03-14T00:17:32.633Z,11.48
2023-03-14T00:19:35.644Z,11.44
2023-03-14T00:21:40.920Z,11.40
2023-03-14T00:23:46.460Z,11.37
2023-03-14T00:25:49.480Z,11.33
2023-03-14T00:27:53.109Z,11.30
2023-03-14T00:29:55.928Z,11.29
2023-03-14T00:31:58.633Z,11.30
2023-03-14T00:34:01.554Z,11.32
2023-03-14T00:36:07.389Z,11.30
2023-03-14T00:38:10.416Z,11.29
2023-03-14T00:40:13.807Z,11.28
2023-03-14T00:42:16.461Z,11.25
2023-03-14T00:44:20.693Z,11.25
2023-03-14T00:46:23.685Z,11.23
2023-03-14T00:48:27.257Z,11.21
2023-03-14T00:50:29.924Z,11.19
2023-03-14T00:52:33.008Z,11.17
2023-03-14T00:54:35.595Z,11.17
2023-03-14T00:56:38.232Z,11.17
2023-03-14T00:58:42.103Z,11.16
2023-03-14T01:00:45.657Z,11.15
2023-03-14T01:02:48.520Z,11.14
2023-03-14T01:04:52.390Z,11.14
2023-03-14T01:06:55.082Z,11.15
2023-03-14T01:08:59.732Z,11.15
2023-03-14T01:11:30.758Z,11.13
2023-03-14T01:13:36.950Z,11.12
2023-03-14T01:15:39.720Z,11.12
2023-03-14T01:17:42.785Z,11.14
2023-03-14T01:19:45.409Z,11.16
2023-03-14T01:21:48.262Z,11.19
2023-03-14T01:23:52.537Z,11.22
2023-03-14T01:25:55.521Z,11.25
2023-03-14T01:27:59.055Z,11.29
2023-03-14T01:30:03.317Z,11.32
2023-03-14T01:32:06.627Z,11.35
2023-03-14T01:34:09.818Z,11.35
2023-03-14T01:36:13.132Z,11.33
2023-03-14T01:38:16.103Z,11.32
2023-03-14T01:40:20.523Z,11.29
2023-03-14T01:42:23.455Z,11.27
2023-03-14T01:44:26.172Z,11.27
2023-03-14T01:46:37.045Z,11.28
2023-03-14T01:49:08.898Z,11.30
2023-03-14T01:51:30.157Z,11.32
2023-03-14T01:53:35.969Z,11.32
2023-03-14T01:55:39.469Z,11.33
2023-03-14T01:58:11.919Z,11.34
2023-03-14T02:00:24.184Z,11.33
2023-03-14T02:02:28.448Z,11.31
2023-03-14T02:04:35.871Z,11.30
2023-03-14T02:06:49.681Z,11.27
2023-03-14T02:08:53.490Z,11.24
2023-03-14T02:10:59.561Z,11.22
2023-03-14T02:13:31.279Z,11.20
2023-03-14T02:15:48.833Z,11.21
2023-03-14T02:18:12.009Z,11.24
2023-03-14T02:20:25.970Z,11.27
2023-03-14T02:22:33.141Z,11.29
2023-03-14T02:25:10.976Z,11.31
2023-03-14T02:27:18.600Z,11.31
2023-03-14T02:29:23.234Z,11.32
2023-03-14T02:31:26.567Z,11.32
2023-03-14T02:33:29.273Z,11.32
2023-03-14T02:35:40.825Z,11.31
2023-03-14T02:37:54.639Z,11.26
2023-03-14T02:40:01.022Z,11.23
2023-03-14T02:42:04.238Z,11.21
2023-03-14T02:44:07.321Z,11.22
2023-03-14T02:46:17.681Z,11.23
2023-03-14T02:48:29.218Z,11.25
2023-03-14T02:50:34.406Z,11.25
2023-03-14T02:52:37.491Z,11.25
2023-03-14T02:54:40.142Z,11.26
2023-03-14T02:56:43.857Z,11.23
2023-03-14T02:58:49.706Z,11.21
2023-03-14T03:01:02.218Z,11.19
2023-03-14T03:03:06.943Z,11.17
2023-03-14T03:05:09.909Z,11.15
2023-03-14T03:07:14.748Z,11.13
2023-03-14T03:09:17.823Z,11.11
2023-03-14T03:11:20.458Z,11.11
2023-03-14T03:13:23.073Z,11.11
2023-03-14T03:15:28.168Z,11.14
2023-03-14T03:17:30.976Z,11.16
2023-03-14T03:19:34.925Z,11.16
2023-03-14T03:21:37.771Z,11.17
2023-03-14T03:23:40.912Z,11.17
2023-03-14T03:25:49.516Z,11.15
2023-03-14T03:27:52.352Z,11.16
2023-03-14T03:29:55.075Z,11.17
2023-03-14T03:31:59.022Z,11.16
2023-03-14T03:34:01.927Z,11.14
2023-03-14T03:36:05.056Z,11.13
2023-03-14T03:38:12.668Z,11.12
2023-03-14T03:40:15.482Z,11.11
2023-03-14T03:42:19.200Z,11.11
2023-03-14T03:44:22.617Z,11.13
2023-03-14T03:46:26.801Z,11.15
2023-03-14T03:48:29.937Z,11.15
2023-03-14T03:50:33.927Z,11.15
2023-03-14T03:52:36.793Z,11.15
2023-03-14T03:54:39.443Z,11.17
2023-03-14T03:56:42.267Z,11.21
2023-03-14T03:58:45.338Z,11.23
2023-03-14T04:00:48.048Z,11.20
2023-03-14T04:02:50.693Z,11.20
2023-03-14T04:04:54.804Z,11.23
2023-03-14T04:06:59.573Z,11.23
2023-03-14T04:09:02.438Z,11.25
2023-03-14T04:11:13.833Z,11.27
2023-03-14T04:13:33.576Z,11.29
2023-03-14T04:15:36.500Z,11.30
2023-03-14T04:17:49.179Z,11.29
2023-03-14T04:19:54.760Z,11.28
2023-03-14T04:21:59.989Z,11.30
2023-03-14T04:24:08.057Z,11.31
2023-03-14T04:26:13.116Z,11.31
2023-03-14T04:28:16.076Z,11.30
2023-03-14T04:30:19.075Z,11.25
2023-03-14T04:32:29.174Z,11.21
2023-03-14T04:34:32.318Z,11.19
2023-03-14T04:36:35.959Z,11.18
2023-03-14T04:38:42.449Z,11.14
2023-03-14T04:40:45.825Z,11.09
2023-03-14T04:42:49.571Z,11.08
2023-03-14T04:44:53.302Z,11.08
2023-03-14T04:46:58.766Z,11.07
2023-03-14T04:49:01.784Z,11.05
2023-03-14T04:51:05.239Z,11.05
2023-03-14T04:53:11.112Z,11.05
2023-03-14T04:55:15.934Z,11.06
2023-03-14T04:57:19.036Z,11.07
2023-03-14T04:59:22.525Z,11.07
2023-03-14T05:01:27.499Z,11.06
2023-03-14T05:03:56.313Z,11.04
2023-03-14T05:06:09.360Z,10.99
2023-03-14T05:08:31.580Z,10.95
2023-03-14T05:11:00.423Z,10.91
2023-03-14T05:13:22.122Z,10.89
2023-03-14T05:15:45.114Z,10.89
2023-03-14T05:18:13.316Z,10.90
2023-03-14T05:20:34.613Z,10.88
2023-03-14T05:22:57.372Z,10.90
2023-03-14T05:25:20.776Z,10.93
2023-03-14T05:27:31.288Z,10.94
2023-03-14T05:29:40.438Z,10.93
2023-03-14T05:32:12.046Z,10.94
2023-03-14T05:34:42.515Z,10.92
2023-03-14T05:37:03.596Z,10.89
2023-03-14T05:39:32.125Z,10.86
2023-03-14T05:41:56.872Z,10.84
2023-03-14T05:44:06.330Z,10.83
2023-03-14T05:46:27.552Z,10.84
2023-03-14T05:48:48.653Z,10.82
2023-03-14T05:51:10.043Z,10.81
2023-03-14T05:53:44.962Z,10.82
2023-03-14T05:56:13.765Z,10.82
2023-03-14T05:58:36.846Z,10.80
2023-03-14T06:00:58.289Z,10.82
2023-03-14T06:03:11.257Z,10.81
2023-03-14T06:05:14.631Z,10.80
2023-03-14T06:07:17.349Z,10.81
2023-03-14T06:09:23.579Z,10.82
2023-03-14T06:11:26.536Z,10.81
2023-03-14T06:13:29.472Z,10.79
2023-03-14T06:15:34.046Z,10.77
2023-03-14T06:17:36.824Z,10.76
2023-03-14T06:19:43.021Z,10.78
2023-03-14T06:21:47.809Z,10.77
2023-03-14T06:23:51.094Z,10.78
2023-03-14T06:25:54.173Z,10.76
2023-03-14T06:27:58.287Z,10.74
2023-03-14T06:30:02.581Z,10.74
2023-03-14T06:32:06.317Z,10.73
2023-03-14T06:34:10.387Z,10.70
2023-03-14T06:36:13.143Z,10.67
2023-03-14T06:38:17.578Z,10.66
2023-03-14T06:40:20.825Z,10.64
2023-03-14T06:42:27.701Z,10.62
2023-03-14T06:44:31.075Z,10.62
2023-03-14T06:46:34.687Z,10.66
2023-03-14T06:48:37.552Z,10.69
2023-03-14T06:50:40.249Z,10.73
2023-03-14T06:52:48.675Z,10.75
2023-03-14T06:54:53.397Z,10.78
2023-03-14T06:56:57.120Z,10.80
2023-03-14T06:59:00.313Z,10.82
2023-03-14T07:01:05.604Z,10.83
2023-03-14T07:03:14.904Z,10.86
2023-03-14T07:05:19.648Z,10.85
2023-03-14T07:07:22.479Z,10.86
2023-03-14T07:09:25.119Z,10.87
2023-03-14T07:11:33.606Z,10.88
2023-03-14T07:13:38.060Z,10.87
2023-03-14T07:15:42.154Z,10.89
2023-03-14T07:17:45.620Z,10.92
2023-03-14T07:19:50.980Z,10.95
2023-03-14T07:21:53.637Z,11.00
2023-03-14T07:23:59.036Z,11.05
2023-03-14T07:26:02.280Z,11.07
2023-03-14T07:28:05.797Z,11.08
2023-03-14T07:30:09.714Z,11.10
2023-03-14T07:32:15.745Z,11.10
2023-03-14T07:34:18.672Z,11.08
2023-03-14T07:36:22.224Z,11.07
2023-03-14T07:38:26.558Z,11.07
2023-03-14T07:40:51.293Z,11.07
2023-03-14T07:42:56.210Z,11.06
2023-03-14T07:45:14.613Z,11.08
2023-03-14T07:47:17.181Z,11.07
2023-03-14T07:49:20.051Z,11.07
2023-03-14T07:51:22.620Z,11.07
2023-03-14T07:53:25.679Z,11.09
2023-03-14T07:55:28.402Z,11.12
2023-03-14T07:57:32.177Z,11.14
2023-03-14T07:59:35.255Z,11.15
2023-03-14T08:01:37.848Z,11.18
2023-03-14T08:03:40.485Z,11.22
2023-03-14T08:05:43.408Z,11.24
2023-03-14T08:07:47.187Z,11.23
2023-03-14T08:09:50.325Z,11.25
2023-03-14T08:11:54.060Z,11.26
2023-03-14T08:13:56.699Z,11.29
2023-03-14T08:15:59.354Z,11.32
2023-03-14T08:18:02.002Z,11.32
2023-03-14T08:20:08.956Z,11.33
2023-03-14T08:22:13.138Z,11.34
2023-03-14T08:24:15.729Z,11.33
2023-03-14T08:26:18.350Z,11.36
2023-03-14T08:28:20.991Z,11.37
2023-03-14T08:30:23.961Z,11.42
2023-03-14T08:32:28.280Z,11.47
2023-03-14T08:34:31.035Z,11.48
2023-03-14T08:36:34.380Z,11.49
2023-03-14T08:38:37.208Z,11.50
2023-03-14T08:40:39.847Z,11.52
2023-03-14T08:42:44.320Z,11.54
2023-03-14T08:44:47.208Z,11.54
2023-03-14T08:46:50.423Z,11.52
2023-03-14T08:48:53.079Z,11.53
2023-03-14T08:51:15.083Z,11.54
2023-03-14T08:53:17.879Z,11.53
2023-03-14T08:55:20.526Z,11.53
2023-03-14T08:57:28.262Z,11.54
2023-03-14T08:59:31.111Z,11.53
2023-03-14T09:01:33.748Z,11.52
2023-03-14T09:03:36.574Z,11.51
2023-03-14T09:05:39.177Z,11.50
2023-03-14T09:07:43.017Z,11.50
2023-03-14T09:09:46.026Z,11.50
2023-03-14T09:11:48.907Z,11.48
2023-03-14T09:13:51.755Z,11.47
2023-03-14T09:15:55.929Z,11.46
2023-03-14T09:17:59.168Z,11.44
2023-03-14T09:20:07.669Z,11.42
2023-03-14T09:22:10.319Z,11.43
2023-03-14T09:24:13.336Z,11.43
2023-03-14T09:26:16.031Z,11.43
2023-03-14T09:28:18.553Z,11.40
2023-03-14T09:30:22.664Z,11.38
2023-03-14T09:32:26.720Z,11.38
2023-03-14T09:34:30.200Z,11.36
2023-03-14T09:36:33.556Z,11.35
2023-03-14T09:38:37.460Z,11.34
2023-03-14T09:40:40.294Z,11.34
2023-03-14T09:42:43.256Z,11.35
2023-03-14T09:45:03.060Z,11.35
2023-03-14T09:47:14.187Z,11.35
2023-03-14T09:49:28.132Z,11.36
2023-03-14T09:51:32.646Z,11.37
2023-03-14T09:53:45.058Z,11.40
2023-03-14T09:55:51.253Z,11.40
2023-03-14T09:58:00.314Z,11.37
2023-03-14T10:00:15.003Z,11.35
2023-03-14T10:02:20.874Z,11.34
2023-03-14T10:04:24.324Z,11.33
2023-03-14T10:06:30.839Z,11.33
2023-03-14T10:08:33.921Z,11.34
2023-03-14T10:10:37.010Z,11.36
2023-03-14T10:12:45.752Z,11.37
2023-03-14T10:14:51.908Z,11.37
2023-03-14T10:16:55.294Z,11.39
2023-03-14T10:19:17.718Z,11.37
2023-03-14T10:21:31.156Z,11.37
2023-03-14T10:23:35.948Z,11.39
2023-03-14T10:25:41.525Z,11.40
2023-03-14T10:27:44.163Z,11.43
2023-03-14T10:29:57.114Z,11.45
2023-03-14T10:32:08.674Z,11.47
2023-03-14T10:34:17.568Z,11.49
2023-03-14T10:36:24.076Z,11.53
2023-03-14T10:38:33.972Z,11.56
2023-03-14T10:40:48.000Z,11.60
2023-03-14T10:42:52.893Z,11.63
2023-03-14T10:45:02.424Z,11.65
2023-03-14T10:47:06.285Z,11.69
2023-03-14T10:49:29.312Z,11.75
2023-03-14T10:51:31.964Z,11.80
2023-03-14T10:53:50.730Z,11.83
2023-03-14T10:56:12.416Z,11.89
2023-03-14T10:58:41.506Z,11.92
2023-03-14T11:00:44.987Z,11.94
2023-03-14T11:03:12.152Z,11.98
2023-03-14T11:05:47.762Z,12.01
2023-03-14T11:07:53.863Z,12.05
2023-03-14T11:10:09.704Z,12.10
2023-03-14T11:12:27.842Z,12.18
2023-03-14T11:14:42.048Z,12.25
2023-03-14T11:17:11.194Z,12.32
2023-03-14T11:19:27.700Z,12.39
2023-03-14T11:21:47.489Z,12.43
2023-03-14T11:24:36.691Z,12.45
2023-03-14T11:26:49.198Z,12.46
2023-03-14T11:28:58.989Z,12.48
2023-03-14T11:31:17.192Z,12.47
2023-03-14T11:33:26.485Z,12.45
2023-03-14T11:35:32.662Z,12.43
2023-03-14T11:37:52.815Z,12.41
2023-03-14T11:40:14.089Z,12.41
2023-03-14T11:42:18.547Z,12.42
2023-03-14T11:44:25.399Z,12.42
2023-03-14T11:46:34.556Z,12.46
2023-03-14T11:49:04.557Z,12.47
2023-03-14T11:51:14.907Z,12.51
2023-03-14T11:53:23.703Z,12.55
2023-03-14T11:55:32.362Z,12.59
2023-03-14T11:57:36.289Z,12.62
2023-03-14T12:00:18.966Z,12.65
2023-03-14T12:02:57.068Z,12.69
2023-03-14T12:05:27.067Z,12.75
2023-03-14T12:07:52.915Z,12.79
2023-03-14T12:09:56.943Z,12.82
2023-03-14T12:12:06.681Z,12.84
2023-03-14T12:14:27.778Z,12.87
2023-03-14T12:16:38.491Z,12.95
2023-03-14T12:18:43.482Z,13.04
2023-03-14T12:20:59.252Z,13.11
2023-03-14T12:23:11.650Z,13.17
2023-03-14T12:25:26.756Z,13.21
2023-03-14T12:27:50.180Z,13.26
2023-03-14T12:30:03.249Z,13.30
2023-03-14T12:32:23.431Z,13.32
2023-03-14T12:34:29.589Z,13.30
2023-03-14T12:36:52.276Z,13.26
2023-03-14T12:39:10.466Z,13.16
2023-03-14T12:41:21.031Z,13.08
2023-03-14T12:43:34.227Z,13.02
2023-03-14T12:45:37.894Z,12.91
2023-03-14T12:47:40.725Z,12.81
2023-03-14T12:49:44.042Z,12.77
2023-03-14T12:51:47.283Z,12.76
2023-03-14T12:54:02.323Z,12.72
2023-03-14T12:56:24.881Z,12.66
2023-03-14T12:58:36.312Z,12.62
2023-03-14T13:00:42.106Z,12.59
2023-03-14T13:02:47.658Z,12.54
2023-03-14T13:05:01.681Z,12.50
2023-03-14T13:07:06.639Z,12.46
2023-03-14T13:09:26.688Z,12.42
2023-03-14T13:11:29.406Z,12.35
2023-03-14T13:13:37.099Z,12.30
2023-03-14T13:15:41.127Z,12.26
2023-03-14T13:17:45.476Z,12.23
2023-03-14T13:19:53.281Z,12.21
2023-03-14T13:22:06.491Z,12.21
2023-03-14T13:24:22.989Z,12.16
2023-03-14T13:26:35.196Z,12.12
2023-03-14T13:28:38.082Z,12.07
2023-03-14T13:30:46.676Z,12.04
2023-03-14T13:32:52.831Z,12.01
2023-03-14T13:34:59.104Z,11.98
2023-03-14T13:37:01.957Z,11.96
2023-03-14T13:39:14.140Z,11.95
2023-03-14T13:41:20.376Z,11.95
2023-03-14T13:43:32.137Z,11.92
2023-03-14T13:45:45.368Z,11.86
2023-03-14T13:47:51.796Z,11.82
2023-03-14T13:49:54.786Z,11.78
2023-03-14T13:51:57.724Z,11.71
2023-03-14T13:54:01.048Z,11.63
2023-03-14T13:56:05.006Z,11.57
2023-03-14T13:58:20.544Z,11.50
2023-03-14T14:00:30.002Z,11.43
2023-03-14T14:02:34.726Z,11.37
2023-03-14T14:04:39.474Z,11.33
2023-03-14T14:06:49.463Z,11.29
2023-03-14T14:08:54.263Z,11.27
2023-03-14T14:11:03.057Z,11.22
2023-03-14T14:13:09.859Z,11.19
2023-03-14T14:15:20.539Z,11.16
2023-03-14T14:17:33.656Z,11.13
2023-03-14T14:19:37.808Z,11.15
2023-03-14T14:21:43.538Z,11.16
2023-03-14T14:23:46.905Z,11.14
2023-03-14T14:25:50.304Z,11.10
2023-03-14T14:27:53.636Z,11.10
2023-03-14T14:30:03.471Z,11.10
2023-03-14T14:32:14.187Z,11.06
2023-03-14T14:34:20.304Z,11.00
2023-03-14T14:36:50.265Z,10.99
2023-03-14T14:39:01.904Z,10.98
2023-03-14T14:41:04.819Z,10.92
2023-03-14T14:43:07.941Z,10.83
2023-03-14T14:45:39.621Z,10.77
2023-03-14T14:48:12.690Z,10.68
2023-03-14T14:50:29.713Z,10.54
2023-03-14T14:52:40.790Z,10.46
2023-03-14T14:54:59.109Z,10.36
2023-03-14T14:57:16.781Z,10.24
2023-03-14T14:59:30.118Z,10.04
2023-03-14T15:01:37.053Z,9.90
2023-03-14T15:03:39.745Z,9.81
2023-03-14T15:05:42.696Z,9.75
2023-03-14T15:07:45.697Z,9.73
2023-03-14T15:09:49.086Z,9.69
2023-03-14T15:11:51.908Z,9.64
2023-03-14T15:13:55.707Z,9.62
2023-03-14T15:15:58.358Z,9.59
2023-03-14T15:18:01.204Z,9.64
2023-03-14T15:20:05.743Z,9.62
2023-03-14T15:22:15.123Z,9.63
2023-03-14T15:24:18.474Z,9.67
2023-03-14T15:26:26.780Z,9.68
2023-03-14T15:28:30.958Z,9.67
2023-03-14T15:30:33.764Z,9.73
2023-03-14T15:32:36.531Z,9.77
2023-03-14T15:34:40.009Z,9.76
2023-03-14T15:36:45.047Z,9.76
2023-03-14T15:38:47.714Z,9.80
2023-03-14T15:40:52.036Z,9.77
2023-03-14T15:42:54.918Z,9.71
2023-03-14T15:44:57.498Z,9.69
2023-03-14T15:47:02.287Z,9.65
2023-03-14T15:49:04.977Z,9.60
2023-03-14T15:51:07.839Z,9.56
2023-03-14T15:53:11.685Z,9.57
2023-03-14T15:55:15.385Z,9.57
2023-03-14T15:57:18.152Z,9.61
2023-03-14T15:59:21.379Z,9.60
2023-03-14T16:01:24.375Z,9.59
2023-03-14T16:03:27.818Z,9.60
2023-03-14T16:05:30.474Z,9.60
2023-03-14T16:07:34.175Z,9.58
2023-03-14T16:09:37.348Z,9.59
2023-03-14T16:11:41.488Z,9.60
2023-03-14T16:13:46.766Z,9.61
2023-03-14T16:16:03.835Z,9.58
2023-03-14T16:18:19.207Z,9.50
2023-03-14T16:20:24.455Z,9.46
2023-03-14T16:22:27.601Z,9.40
2023-03-14T16:24:30.611Z,9.38
2023-03-14T16:26:36.714Z,9.31
2023-03-14T16:28:39.965Z,9.17
2023-03-14T16:30:42.757Z,8.97
2023-03-14T16:32:48.428Z,8.80
2023-03-14T16:34:52.022Z,8.63
2023-03-14T16:36:56.143Z,8.51
2023-03-14T16:38:59.910Z,8.41
2023-03-14T16:41:06.359Z,8.33
2023-03-14T16:43:15.988Z,8.24
2023-03-14T16:45:19.196Z,8.14
2023-03-14T16:47:21.967Z,8.09
2023-03-14T16:49:24.587Z,8.08
2023-03-14T16:51:27.917Z,8.09
2023-03-14T16:53:32.628Z,8.15
2023-03-14T16:55:35.483Z,8.17
2023-03-14T16:57:38.076Z,8.17
2023-03-14T16:59:41.194Z,8.12
2023-03-14T17:01:44.262Z,8.08
2023-03-14T17:03:50.016Z,8.05
2023-03-14T17:05:52.910Z,8.02
2023-03-14T17:07:56.213Z,7.98
2023-03-14T17:09:58.963Z,7.94
2023-03-14T17:12:02.257Z,7.93
2023-03-14T17:14:05.897Z,7.93
2023-03-14T17:16:09.725Z,7.95
2023-03-14T17:18:13.781Z,7.98
2023-03-14T17:20:17.866Z,8.00
2023-03-14T17:22:24.276Z,7.97
2023-03-14T17:24:28.147Z,7.95
2023-03-14T17:26:31.646Z,7.91
2023-03-14T17:28:34.993Z,7.88
2023-03-14T17:30:37.783Z,7.83
2023-03-14T17:32:40.626Z,7.79
2023-03-14T17:34:43.617Z,7.73
2023-03-14T17:36:51.293Z,7.67
2023-03-14T17:38:58.656Z,7.61
2023-03-14T17:41:03.262Z,7.56
2023-03-14T17:43:07.205Z,7.49
2023-03-14T17:45:11.216Z,7.43
2023-03-14T17:47:15.061Z,7.38
2023-03-14T17:49:18.353Z,7.33
2023-03-14T17:51:21.685Z,7.24
2023-03-14T17:53:26.738Z,7.19
2023-03-14T17:55:31.314Z,7.13
2023-03-14T17:57:37.920Z,7.09
2023-03-14T17:59:42.721Z,7.07
2023-03-14T18:01:46.184Z,7.06
2023-03-14T18:03:58.023Z,7.06
2023-03-14T18:06:05.349Z,7.11
2023-03-14T18:08:13.741Z,7.15
2023-03-14T18:10:21.388Z,7.20
2023-03-14T18:12:24.180Z,7.25
2023-03-14T18:14:29.815Z,7.30
2023-03-14T18:16:34.599Z,7.36
2023-03-14T18:18:38.040Z,7.39
2023-03-14T18:20:49.003Z,7.41
2023-03-14T18:22:53.380Z,7.41
2023-03-14T18:24:56.131Z,7.42
2023-03-14T18:26:59.890Z,7.43
2023-03-14T18:29:04.723Z,7.46
2023-03-14T18:31:13.496Z,7.47
2023-03-14T18:33:17.838Z,7.47
2023-03-14T18:35:21.418Z,7.47
2023-03-14T18:37:25.608Z,7.49
2023-03-14T18:39:29.232Z,7.46
2023-03-14T18:41:31.990Z,7.41
2023-03-14T18:43:35.674Z,7.42
2023-03-14T18:45:40.356Z,7.42
2023-03-14T18:47:43.986Z,7.40
2023-03-14T18:49:47.850Z,7.39
2023-03-14T18:51:51.520Z,7.40
2023-03-14T18:54:08.330Z,7.41
2023-03-14T18:56:14.047Z,7.40
2023-03-14T18:58:21.611Z,7.40
2023-03-14T19:00:28.092Z,7.38
2023-03-14T19:02:36.053Z,7.37
2023-03-14T19:04:43.385Z,7.36
2023-03-14T19:06:46.988Z,7.34
2023-03-14T19:08:51.443Z,7.31
2023-03-14T19:10:59.014Z,7.29
2023-03-14T19:13:01.731Z,7.29
2023-03-14T19:15:06.231Z,7.27
2023-03-14T19:17:10.876Z,7.27
2023-03-14T19:19:16.007Z,7.27
2023-03-14T19:21:30.367Z,7.30
2023-03-14T19:23:35.045Z,7.33
2023-03-14T19:25:41.828Z,7.34
2023-03-14T19:27:45.897Z,7.33
2023-03-14T19:29:49.680Z,7.30
2023-03-14T19:31:54.345Z,7.28
2023-03-14T19:34:04.129Z,7.27
2023-03-14T19:36:19.472Z,7.28
2023-03-14T19:38:26.972Z,7.30
2023-03-14T19:40:30.681Z,7.30
2023-03-14T19:42:33.716Z,7.28
2023-03-14T19:44:38.263Z,7.25
2023-03-14T19:46:50.677Z,7.23
2023-03-14T19:48:56.818Z,7.19
2023-03-14T19:51:01.941Z,7.15
2023-03-14T19:53:08.175Z,7.12
2023-03-14T19:55:12.801Z,7.10
2023-03-14T19:57:17.675Z,7.10
2023-03-14T19:59:21.759Z,7.10
2023-03-14T20:01:25.831Z,7.07
2023-03-14T20:03:32.057Z,7.03
2023-03-14T20:05:39.331Z,6.96
2023-03-14T20:07:45.356Z,6.81
2023-03-14T20:09:49.051Z,6.75
2023-03-14T20:11:52.720Z,6.71
2023-03-14T20:13:56.285Z,6.70
2023-03-14T20:15:59.810Z,6.65
2023-03-14T20:18:03.869Z,6.52
2023-03-14T20:20:10.823Z,6.40
2023-03-14T20:22:18.133Z,6.31
2023-03-14T20:24:21.928Z,6.26
2023-03-14T20:26:27.390Z,6.26
2023-03-14T20:28:32.352Z,6.27
2023-03-14T20:30:39.299Z,6.27
2023-03-14T20:32:45.474Z,6.27
2023-03-14T20:34:49.316Z,6.26
2023-03-14T20:36:52.852Z,6.29
2023-03-14T20:38:56.775Z,6.32
2023-03-14T20:41:01.199Z,6.37
2023-03-14T20:43:07.680Z,6.42
2023-03-14T20:45:11.706Z,6.45
2023-03-14T20:47:17.702Z,6.49
2023-03-14T20:49:21.410Z,6.48
2023-03-14T20:51:26.641Z,6.50
2023-03-14T20:53:31.035Z,6.51
2023-03-14T20:55:35.345Z,6.51
2023-03-14T20:57:40.966Z,6.50
2023-03-14T20:59:44.581Z,6.50
2023-03-14T21:01:49.413Z,6.49
2023-03-14T21:03:53.137Z,6.47
2023-03-14T21:05:58.989Z,6.43
2023-03-14T21:08:03.183Z,6.43
2023-03-14T21:10:14.268Z,6.46
2023-03-14T21:12:17.110Z,6.51
2023-03-14T21:14:22.455Z,6.52
2023-03-14T21:16:25.896Z,6.53
2023-03-14T21:18:33.105Z,6.55
2023-03-14T21:20:39.090Z,6.55
2023-03-14T21:22:42.432Z,6.52
2023-03-14T21:24:46.121Z,6.49
2023-03-14T21:26:49.222Z,6.44
2023-03-14T21:28:52.968Z,6.41
2023-03-14T21:31:07.049Z,6.35
2023-03-14T21:33:11.029Z,6.29
2023-03-14T21:35:15.252Z,6.21
2023-03-14T21:37:19.292Z,6.16
2023-03-14T21:39:23.487Z,6.14
2023-03-14T21:41:26.333Z,6.15
2023-03-14T21:43:29.262Z,6.14
2023-03-14T21:45:35.869Z,6.12
2023-03-14T21:47:39.400Z,6.12
2023-03-14T21:49:45.046Z,6.14
2023-03-14T21:51:47.743Z,6.18
2023-03-14T21:53:50.965Z,6.21
2023-03-14T21:55:53.735Z,6.23
2023-03-14T21:57:56.521Z,6.24
2023-03-14T21:59:59.441Z,6.26
2023-03-14T22:02:05.758Z,6.27
2023-03-14T22:04:08.622Z,6.28
2023-03-14T22:06:11.320Z,6.25
2023-03-14T22:08:15.965Z,6.21
2023-03-14T22:10:19.202Z,6.20
2023-03-14T22:12:21.904Z,6.16
2023-03-14T22:14:25.058Z,6.12
2023-03-14T22:16:27.736Z,6.10
2023-03-14T22:18:31.415Z,6.06
2023-03-14T22:20:34.655Z,6.05
2023-03-14T22:22:38.283Z,6.06
2023-03-14T22:24:41.035Z,6.08
2023-03-14T22:26:43.822Z,6.10
2023-03-14T22:28:48.133Z,6.11
2023-03-14T22:30:51.978Z,6.08
2023-03-14T22:32:56.911Z,6.04
2023-03-14T22:35:01.123Z,5.99
2023-03-14T22:37:05.980Z,5.94
2023-03-14T22:39:08.902Z,5.91
2023-03-14T22:41:11.457Z,5.90
2023-03-14T22:43:14.354Z,5.89
2023-03-14T22:45:17.006Z,5.87
2023-03-14T22:47:20.393Z,5.84
2023-03-14T22:49:23.064Z,5.84
2023-03-14T22:51:25.818Z,5.86
2023-03-14T22:53:30.178Z,5.87
2023-03-14T22:55:32.852Z,5.86
2023-03-14T22:57:37.172Z,5.84
2023-03-14T22:59:40.158Z,5.78
2023-03-14T23:01:43.405Z,5.74
2023-03-14T23:03:46.203Z,5.73
2023-03-14T23:05:50.391Z,5.72
2023-03-14T23:07:55.134Z,5.72
2023-03-14T23:09:58.426Z,5.71
2023-03-14T23:12:01.922Z,5.70
2023-03-14T23:14:05.988Z,5.70
2023-03-14T23:16:12.187Z,5.69
2023-03-14T23:18:15.444Z,5.71
2023-03-14T23:20:18.330Z,5.74
2023-03-14T23:22:22.860Z,5.76
2023-03-14T23:24:25.623Z,5.73
2023-03-14T23:26:28.435Z,5.68
2023-03-14T23:28:31.324Z,5.65
2023-03-14T23:30:34.140Z,5.68
2023-03-14T23:32:36.949Z,5.69
2023-03-14T23:34:39.642Z,5.70
2023-03-14T23:36:45.829Z,5.72
2023-03-14T23:38:48.595Z,5.75
2023-03-14T23:40:51.965Z,5.75
2023-03-14T23:42:54.958Z,5.73
2023-03-14T23:44:57.641Z,5.71
2023-03-14T23:47:00.497Z,5.67
2023-03-14T23:49:03.322Z,5.65
2023-03-14T23:51:08.870Z,5.62
2023-03-14T23:53:13.059Z,5.60
2023-03-14T23:55:18.344Z,5.60
2023-03-14T23:57:21.015Z,5.57
2023-03-14T23:59:23.824Z,5.58
